首页
METAR-TAF:

METAR-TAF

机场 :

Del Rio International Airport

Del Rio, 得克萨斯州, 美国

纬度: 29-22-29N, 经度: 100-55-25W, 海拔: 304米

当前天气观测

该预报发布于55分钟前的01:53 UTC
风速8节,风向东转东南
温度 13°C
湿度 88%
气压 1013 hPa
能見度: 16.1公里
天空无云

METAR: KDRT 230153Z AUTO 11008KT 10SM CLR 13/11 A2990 RMK AO2 SLP117 T01330111

时间: 20:48 (02:48 UTC)

预报

该预报发布于3小时和24分钟前的23:24 UTC
预报有效从23日的 00点(UTC)到 23日的 24点(UTC)
风速7节,风向南转南东
能見度: 10公里
少量云层高于20000英尺
从 23日的 0900点(UTC)
风速7节,风向西北
能見度: 4.8公里
少量云层高于200英尺
轻雾
从 23日的 1200点(UTC)
风速8节,风向西北
能見度: 8.0公里
少量云层高于1000英尺
轻雾
从 23日的 1400点(UTC)
风速10节,风向北转西北
能見度: 10公里
少量云层高于25000英尺

TAF: KDRT 222324Z 2300/2324 15007KT P6SM FEW200 FM230900 32007KT 3SM BR FEW002 FM231200 31008KT 5SM BR FEW010 FM231400 33010KT P6SM FEW250

超过4000个机场的气象观测和天气预报(METAR&TAF报告)。

可查询的气象台以黄色和红色小点在地图上表示。

将鼠标移到小点上方,可查看气象台名称。

然后点击查看天气观测和预报。

如需切换地图:点击带黑十字的绿色按钮放大地图;点击带横线的绿色按钮缩小地图;或者点击绿色箭头查看邻近地区的地图。


METAR-TAF: